πŸ“Š DonnΓ©es MΓ©tΓ©o - Bordeaux

Total mesures

14,403

TempΓ©rature moyenne

18.9Β°C

Temp. Min/Max

2.9Β° / 42.4Β°

HumiditΓ© moyenne

64.8%

Pression moyenne

1014.7 hPa
enregistrements
ID Date/Heure Temp (Β°C) HumiditΓ© (%) Pression (hPa) Tendance LuminositΓ© (lux) Situation
11703 20/07/2026 15:15 32.5 19.0 1,012.6 β†’ Stable 56,760 chaleur-seche
11702 20/07/2026 14:45 32.2 20.0 1,012.8 β†’ Stable 61,200 chaleur-seche
11701 20/07/2026 14:15 32.2 21.0 1,012.8 β†’ Stable 82,872 chaleur-seche
11700 20/07/2026 13:45 31.6 23.0 1,013.3 β†’ Stable 88,056 chaleur-seche
11699 20/07/2026 13:15 31.8 24.0 1,013.5 β†’ Stable 103,704 chaleur-seche
11698 20/07/2026 12:45 31.2 26.0 1,013.9 β†’ Stable 105,648 chaleur-seche
11697 20/07/2026 12:15 30.4 28.0 1,013.9 β†’ Stable 96,108 chaleur-seche
11696 20/07/2026 11:45 29.7 30.0 1,014.2 β†’ Stable 94,164 conditions-neutrales-ou-non-definies
11695 20/07/2026 11:15 29.1 30.0 1,014.2 β†’ Stable 90,276 conditions-neutrales-ou-non-definies
11694 20/07/2026 10:45 28.3 32.0 1,014.5 β†’ Stable 86,760 confortablement-chaud (approx.)
11693 20/07/2026 10:15 27.6 33.0 1,014.5 β†’ Stable 90,744 confortablement-chaud (approx.)
11692 20/07/2026 09:45 26.7 35.0 1,014.6 β†’ Stable 87,876 confortablement-chaud (approx.)
11691 20/07/2026 09:15 26.0 36.0 1,014.6 β†’ Stable 81,300 confortablement-chaud (approx.)
11690 20/07/2026 08:45 25.0 38.0 1,014.8 β†’ Stable 73,608 confortablement-chaud (approx.)
11689 20/07/2026 08:15 24.0 39.0 1,014.8 β†’ Stable 62,964 conditions-neutrales-ou-non-definies
11688 20/07/2026 07:45 23.2 41.0 1,014.8 β†’ Stable 52,404 conditions-neutrales-ou-non-definies
11687 20/07/2026 07:15 22.3 43.0 1,014.8 β†’ Stable 41,112 frais-stable
11686 20/07/2026 06:45 21.7 44.0 1,014.6 β†’ Stable 32,040 frais-stable
11685 20/07/2026 06:15 20.9 46.0 1,014.6 β†’ Stable 19,536 frais-stable
11684 20/07/2026 05:45 20.6 46.0 1,014.3 β†’ Stable 11,940 frais-stable
11683 20/07/2026 05:15 20.7 46.0 1,014.4 β†’ Stable 3,708 frais-stable
11682 20/07/2026 04:45 20.9 46.0 1,014.1 β†’ Stable 96 frais-stable
11681 20/07/2026 04:15 21.3 45.0 1,014.1 β†’ Stable 0 frais-stable
11680 20/07/2026 03:45 21.7 44.0 1,014.2 β†’ Stable 0 frais-stable
11679 20/07/2026 03:15 22.1 42.0 1,014.2 β†’ Stable 0 frais-stable
11678 20/07/2026 03:00 22.2 42.0 1,014.2 β†’ Stable 0 frais-stable
11677 20/07/2026 02:45 22.4 42.0 1,014.1 β†’ Stable 0 frais-stable
11676 20/07/2026 02:15 22.9 40.0 1,014.1 β†’ Stable 0 frais-stable
11675 20/07/2026 01:45 23.3 40.0 1,014.2 β†’ Stable 0 conditions-neutrales-ou-non-definies
11674 20/07/2026 01:15 23.9 39.0 1,014.2 β†’ Stable 0 conditions-neutrales-ou-non-definies
11673 20/07/2026 00:45 24.2 39.0 1,014.0 β†’ Stable 0 conditions-neutrales-ou-non-definies
11672 20/07/2026 00:15 24.7 39.0 1,014.0 β†’ Stable 0 conditions-neutrales-ou-non-definies
11671 19/07/2026 23:45 25.1 38.0 1,013.7 β†’ Stable 0 conditions-neutrales-ou-non-definies
11670 19/07/2026 23:15 25.5 38.0 1,013.7 β†’ Stable 0 conditions-neutrales-ou-non-definies
11669 19/07/2026 22:45 25.9 38.0 1,013.3 β†’ Stable 0 conditions-neutrales-ou-non-definies
11668 19/07/2026 22:15 26.6 37.0 1,013.3 β†’ Stable 0 conditions-neutrales-ou-non-definies
11667 19/07/2026 21:45 27.1 36.0 1,013.0 β†’ Stable 0 conditions-neutrales-ou-non-definies
11666 19/07/2026 21:15 27.8 34.0 1,013.0 β†’ Stable 0 conditions-neutrales-ou-non-definies
11665 19/07/2026 20:45 28.3 33.0 1,012.2 β†’ Stable 0 conditions-neutrales-ou-non-definies
11664 19/07/2026 20:15 29.2 32.0 1,012.2 β†’ Stable 0 conditions-neutrales-ou-non-definies
11663 19/07/2026 19:45 29.7 31.0 1,011.6 β†’ Stable 276 conditions-neutrales-ou-non-definies
11662 19/07/2026 19:15 30.7 28.0 1,011.6 β†’ Stable 6,672 chaleur-seche
11661 19/07/2026 18:45 31.3 27.0 1,011.6 β†’ Stable 14,448 chaleur-seche
11660 19/07/2026 18:15 32.3 25.0 1,011.6 β†’ Stable 25,092 chaleur-seche
11659 19/07/2026 17:45 32.7 24.0 1,011.5 β†’ Stable 34,812 chaleur-seche
11658 19/07/2026 17:15 33.4 23.0 1,011.5 β†’ Stable 46,296 chaleur-seche
11657 19/07/2026 16:45 33.8 23.0 1,011.6 β†’ Stable 56,112 chaleur-seche
11656 19/07/2026 16:15 34.0 23.0 1,011.6 β†’ Stable 67,128 chaleur-seche
11655 19/07/2026 15:45 34.1 22.0 1,011.7 β†’ Stable 76,020 chaleur-seche
11654 19/07/2026 15:15 34.4 20.0 1,011.7 β†’ Stable 83,976 chaleur-seche
11653 19/07/2026 14:45 34.3 20.0 1,012.3 β†’ Stable 90,648 chaleur-seche
11652 19/07/2026 14:15 34.4 21.0 1,012.3 β†’ Stable 96,204 chaleur-seche
11651 19/07/2026 13:45 34.2 22.0 1,012.6 β†’ Stable 100,644 chaleur-seche
11650 19/07/2026 13:15 33.8 23.0 1,012.7 β†’ Stable 103,884 chaleur-seche
11649 19/07/2026 12:45 33.6 24.0 1,013.2 β†’ Stable 105,744 chaleur-seche
11648 19/07/2026 12:15 33.3 25.0 1,013.2 β†’ Stable 106,392 chaleur-seche
11647 19/07/2026 11:45 33.0 25.0 1,013.5 β†’ Stable 105,648 chaleur-seche
11646 19/07/2026 11:15 32.6 25.0 1,013.5 β†’ Stable 103,608 chaleur-seche
11645 19/07/2026 10:45 31.9 28.0 1,014.0 β†’ Stable 100,368 chaleur-seche
11644 19/07/2026 10:15 30.9 31.0 1,014.0 β†’ Stable 95,832 chaleur-seche
11643 19/07/2026 09:45 30.0 34.0 1,013.8 β†’ Stable 90,180 chaleur-seche
11642 19/07/2026 09:15 29.1 37.0 1,013.8 β†’ Stable 80,556 conditions-neutrales-ou-non-definies
11641 19/07/2026 08:45 28.3 40.0 1,013.7 β†’ Stable 72,504 confortablement-chaud
11640 19/07/2026 08:15 27.3 42.0 1,013.7 β†’ Stable 61,476 confortablement-chaud (approx.)
11639 19/07/2026 07:45 26.3 44.0 1,013.6 β†’ Stable 53,052 confortablement-chaud (approx.)
11638 19/07/2026 07:15 25.0 47.0 1,013.6 β†’ Stable 39,624 confortablement-chaud (approx.)
11637 19/07/2026 06:45 24.0 54.0 1,013.7 β†’ Stable 30,648 confortablement-chaud (approx.)
11636 19/07/2026 06:15 22.0 65.0 1,013.7 β†’ Stable 16,764 frais-stable
11635 19/07/2026 05:45 21.1 71.0 1,013.2 β†’ Stable 10,272 pluvieux-gris (approx.)
11634 19/07/2026 05:15 20.6 74.0 1,013.2 β†’ Stable 3,420 pluvieux-gris (approx.)
11633 19/07/2026 04:45 20.6 72.0 1,013.0 β†’ Stable 96 pluvieux-gris (approx.)
11632 19/07/2026 04:15 20.9 72.0 1,013.0 β†’ Stable 0 pluvieux-gris (approx.)
11631 19/07/2026 03:45 21.0 71.0 1,013.1 β†’ Stable 0 pluvieux-gris (approx.)
11630 19/07/2026 03:15 21.3 70.0 1,013.1 β†’ Stable 0 pluvieux-gris (approx.)
11629 19/07/2026 03:00 21.4 70.0 1,013.1 β†’ Stable 0 pluvieux-gris (approx.)
11628 19/07/2026 02:45 21.5 69.0 1,013.3 β†’ Stable 0 frais-stable
11627 19/07/2026 02:15 21.7 64.0 1,013.3 β†’ Stable 0 frais-stable
11626 19/07/2026 01:45 21.9 63.0 1,013.3 β†’ Stable 0 frais-stable
11625 19/07/2026 01:15 22.0 61.0 1,013.3 β†’ Stable 0 frais-stable
11624 19/07/2026 00:45 22.2 59.0 1,013.6 β†’ Stable 0 frais-stable
11623 19/07/2026 00:15 22.7 55.0 1,013.6 β†’ Stable 0 frais-stable
11622 18/07/2026 23:45 23.0 52.0 1,013.8 β†’ Stable 0 frais-stable
11621 18/07/2026 23:15 23.6 50.0 1,013.8 β†’ Stable 0 conditions-neutrales-ou-non-definies
11620 18/07/2026 22:45 23.8 50.0 1,013.6 β†’ Stable 0 conditions-neutrales-ou-non-definies
11619 18/07/2026 22:15 24.2 53.0 1,013.6 β†’ Stable 0 confortablement-chaud (approx.)
11618 18/07/2026 21:45 24.4 56.0 1,013.1 β†’ Stable 0 confortablement-chaud (approx.)
11617 18/07/2026 21:15 25.1 56.0 1,013.1 β†’ Stable 0 confortablement-chaud (approx.)
11616 18/07/2026 20:45 25.6 57.0 1,012.5 β†’ Stable 0 confortablement-chaud (approx.)
11615 18/07/2026 20:15 26.5 54.0 1,012.5 β†’ Stable 0 confortablement-chaud (approx.)
11614 18/07/2026 19:45 27.1 52.0 1,012.1 β†’ Stable 372 confortablement-chaud (approx.)
11613 18/07/2026 19:15 28.2 49.0 1,012.1 β†’ Stable 6,672 confortablement-chaud (approx.)
11612 18/07/2026 18:45 28.8 47.0 1,012.2 β†’ Stable 14,352 confortablement-chaud (approx.)
11611 18/07/2026 18:15 29.3 46.0 1,012.2 β†’ Stable 24,624 conditions-neutrales-ou-non-definies
11610 18/07/2026 17:45 30.2 44.0 1,012.1 β†’ Stable 33,984 conditions-neutrales-ou-non-definies
11609 18/07/2026 17:15 31.3 38.0 1,012.1 β†’ Stable 39,444 chaleur-seche
11608 18/07/2026 16:45 32.2 33.0 1,012.1 β†’ Stable 46,764 chaleur-seche
11607 18/07/2026 16:15 32.4 30.0 1,012.1 β†’ Stable 66,756 chaleur-seche
11606 18/07/2026 15:45 32.5 28.0 1,012.5 β†’ Stable 75,648 chaleur-seche
11605 18/07/2026 15:15 32.4 30.0 1,012.5 β†’ Stable 83,892 chaleur-seche
11604 18/07/2026 14:45 32.2 29.0 1,013.0 β†’ Stable 90,828 chaleur-seche